Medicine Hat, Alberta

1:21 PM MDT on September 02, 2015 (GMT -0600)
Medicine Hat | | Change Station
CLOSE
Current Station
Airport
Location: Medicine Hat,
Elevation: 2352 ft
Nearby Weather Stations

Elev 2352 ft 50.02 °N, 110.72 °W | Updated 21 minutes ago

Overcast
Overcast
79 °F
Feels Like 79 °F
N
12
Wind Variable Wind from SSW
Gusts 18 mph

Today is forecast to be nearly the same temperature as yesterday.

Today
High -- | Low -- °F
--% Chance of Precip.
Yesterday
High -- | Low -- °F
Precip. -- in
6:39 AM 8:04 PM
Waning Gibbous, 78% visible
Pressure 29.60 in
Visibility 30.0 miles
Clouds Few 15000 ft
Overcast 27000 ft
Dew Point 34 °F
Humidity 20%
Rainfall 0.00 in
Snow Depth Not available.
UV 2 out of 12
Pollen Not available.
Air Quality Not available.
Flu Activity Not available.
METAR CYXH 021900Z 20010G16KT 30SM FEW150 OVC270 26/01 A2962 RMK AC1CI7 SLP024 DENSITY ALT 4400FT
Pressure 29.60 in
Visibility 30.0 miles
Clouds Few 15000 ft
Overcast 27000 ft
Dew Point 34 °F
Humidity 20%
Rainfall 0.00 in
Snow Depth Not available.
UV 2 out of 12
Pollen Not available.
Air Quality Not available.
Flu Activity Not available.
METAR CYXH 021900Z 20010G16KT 30SM FEW150 OVC270 26/01 A2962 RMK AC1CI7 SLP024 DENSITY ALT 4400FT

10-Day Weather Forecast

×

Almanac

Astronomy

Sep. 02, 2015 Rise Set
Actual Time
Civil Twilight
Nautical Twilight
Astronomical Twilight
Moon
Length of Visible Light
Length of Day
Tomorrow will be .
, % of the Moon is Illuminated

Today's Extremes

Country Highs Country Lows

Community

WunderPhotos

Upload Photos

1,851,799 photos uploaded!

WunderBlogs® & News

Nearby

Air Quality

  Air Quality AQ Index Pollutant
Not available.

Snow Depth

Station Depth Elevation

Earthquake Activity

City Distance Mag. Time & Date
Minimum magnitude displayed is 2.5.

Coastal Water Temperatures

Place Temperature

Stations

Nearby Weather Stations

Station Location Temp. Windchill Dew Point Humidity Wind Precip. Elev Updated Type